Flight Track Log - Related Links

Times and Time Zones

All times are in EST time to prevent confusion due to time zone crossing. See the ASQ5740 flight status page for this flight to view local times or setup timezone preferences in your user account.

Time Position Orientation Groundspeed Altitude Reporting Facility
EST Latitude Longitude Course Direction KTS MPH feet Rate Location/Type
Fri 01:13:53 PM 38.9167 -77.5333 233° Southwest 212 244 2,300  Level Potomac TRACON
Fri 01:14:54 PM 38.8500 -77.5333 180° South 253 291 5,200 2,900 Climbing Potomac TRACON
Fri 01:15:53 PM 38.7833 -77.5333 180° South 254 292 8,100 1,991 Climbing Potomac TRACON
Fri 01:16:00 PM 38.6782 -77.8000 224° Southwest  Level Estimated
Fri 01:17:00 PM 38.6107 -77.8846 226° Southwest  Level Estimated
Fri 01:18:00 PM 38.5432 -77.9691 226° Southwest  Level Estimated
Fri 01:18:25 PM 38.6186 -77.6456 208° Southwest 278 320 12,200  Level Washington Center
Fri 01:19:00 PM 38.4757 -78.0534 233° Southwest  Level Estimated
Fri 01:19:24 PM 38.5425 -77.7100 214° Southwest 309 356 13,700  Level Washington Center
Fri 01:20:24 PM 38.4661 -77.7742 213° Southwest 325 374 15,500 1,785 Climbing Washington Center
Fri 01:21:25 PM 38.3878 -77.8381 213° Southwest 336 387 17,300 1,513 Climbing Washington Center
Fri 01:22:23 PM 38.3222 -77.8969 215° Southwest 336 387 18,500 1,311 Climbing Washington Center
Fri 01:23:24 PM 38.2436 -77.9631 213° Southwest 336 387 19,900 1,180 Climbing Washington Center
Fri 01:24:25 PM 38.1611 -78.0319 213° Southwest 341 392 20,900 992 Climbing Washington Center
Fri 01:25:25 PM 38.0783 -78.1003 213° Southwest 354 407 21,900 1,008 Climbing Washington Center
Fri 01:26:24 PM 37.9975 -78.1767 217° Southwest 359 413 22,900 1,008 Climbing Washington Center
Fri 01:27:24 PM 37.9347 -78.2747 231° Southwest 353 406 23,900 545 Climbing Washington Center
Fri 01:28:25 PM 37.8636 -78.3747 228° Southwest 368 423 24,000 50 Climbing Washington Center
Fri 01:29:23 PM 37.7925 -78.4772 229° Southwest 387 445 24,000  Level Washington Center
Fri 01:30:24 PM 37.7167 -78.5872 229° Southwest 405 466 24,000  Level Washington Center
Fri 01:31:25 PM 37.6322 -78.7044 228° Southwest 415 478 24,000  Level Washington Center
Fri 01:32:23 PM 37.5586 -78.8089 228° Southwest 415 478 24,000  Level Washington Center
Fri 01:33:24 PM 37.4914 -78.9081 230° Southwest 404 465 24,000  Level Washington Center
Fri 01:34:25 PM 37.4261 -78.9969 227° Southwest 374 430 24,000  Level Washington Center
Fri 01:35:23 PM 37.3611 -79.0881 228° Southwest 359 413 24,000  Level Washington Center
Fri 01:36:23 PM 37.3044 -79.1664 228° Southwest 351 404 24,000  Level Washington Center
Fri 01:37:24 PM 37.2414 -79.2547 228° Southwest 351 404 24,000  Level Washington Center
Fri 01:38:24 PM 37.1781 -79.3456 229° Southwest 351 404 24,000  Level Washington Center
Fri 01:39:25 PM 37.1167 -79.4389 230° Southwest 351 404 24,000  Level Washington Center
Fri 01:40:23 PM 37.0531 -79.5319 229° Southwest 351 404 24,000  Level Washington Center
Fri 01:41:24 PM 36.9850 -79.6325 230° Southwest 351 404 24,000  Level Washington Center
Fri 01:42:25 PM 36.9233 -79.7256 230° Southwest 351 404 24,000  Level Washington Center
Fri 01:44:02 PM 36.8256 -79.8664 229° Southwest 339 390 24,000  Level Atlanta Center
Fri 01:45:02 PM 36.7619 -79.9578 229° Southwest 344 396 24,000  Level Atlanta Center
Fri 01:46:02 PM 36.7003 -80.0489 230° Southwest 344 396 24,000  Level Atlanta Center
Fri 01:47:02 PM 36.6328 -80.1481 230° Southwest 344 396 24,000  Level Atlanta Center
Fri 01:48:02 PM 36.5708 -80.2389 230° Southwest 344 396 24,000 -250 Level Atlanta Center
Fri 01:49:02 PM 36.4872 -80.2944 208° Southwest 338 389 23,500 -750 Descending Atlanta Center
Fri 01:50:02 PM 36.3881 -80.3328 197° South 351 404 22,500 -950 Descending Atlanta Center
Fri 01:51:02 PM 36.2933 -80.3656 196° South 379 436 21,600 -950 Descending Atlanta Center
Fri 01:52:02 PM 36.1900 -80.4011 196° South 384 442 20,600 -800 Descending Atlanta Center
Fri 01:53:02 PM 36.0847 -80.4367 195° South 390 449 20,000 -300 Descending Atlanta Center
Fri 01:54:02 PM 35.9836 -80.4719 196° South 390 449 20,000  Level Atlanta Center
Fri 01:55:02 PM 35.8742 -80.5100 196° South 385 443 20,000  Level Atlanta Center
Fri 01:56:02 PM 35.7706 -80.5400 193° South 380 437 20,000  Level Atlanta Center
Fri 01:57:02 PM 35.7125 -80.6219 229° Southwest 349 402 20,000  Level Atlanta Center
Fri 01:58:02 PM 35.6547 -80.7289 236° Southwest 337 388 20,000  Level Atlanta Center
Fri 01:59:02 PM 35.6136 -80.8225 242° Southwest 348 400 20,000 -150 Level Atlanta Center
Fri 02:00:02 PM 35.5597 -80.9217 236° Southwest 354 407 19,700 -1,400 Descending Atlanta Center
Fri 02:01:02 PM 35.5058 -81.0156 235° Southwest 354 407 17,200 -1,350 Descending Atlanta Center
Fri 02:02:02 PM 35.4581 -81.1092 238° Southwest 348 400 17,000 -158 Descending Atlanta Center
Fri 02:02:18 PM 35.4425 -81.1556 248° West 331 381 17,000 -343 Level Atlanta Center
Fri 02:02:37 PM 35.4264 -81.1894 240° Southwest 338 389 16,800 -1,500 Descending Atlanta Center
Fri 02:03:02 PM 35.4044 -81.2333 238° Southwest 356 410 15,900 -2,066 Descending Atlanta Center
Fri 02:03:38 PM 35.3725 -81.2906 236° Southwest 369 425 14,700 -2,100 Descending Atlanta Center
Fri 02:04:02 PM 35.3483 -81.3294 233° Southwest 363 418 13,800 -2,060 Descending Atlanta Center
Fri 02:04:45 PM 35.3144 -81.4019 240° Southwest 327 376 12,400 -2,000 Descending Atlanta Center
Fri 02:05:02 PM 35.3025 -81.4253 238° Southwest 350 403 11,800 -1,792 Descending Atlanta Center
Fri 02:06:02 PM 35.2542 -81.5106 235° Southwest 330 380 10,100 -900 Descending Atlanta Center
Fri 02:07:02 PM 35.2078 -81.5983 237° Southwest 320 368 10,000 -50 Descending Atlanta Center
Fri 02:08:02 PM 35.1744 -81.6986 248° West 315 362 10,000 -350 Level Atlanta Center
Fri 02:09:02 PM 35.1489 -81.7856 250° West 301 346 9,300 -1,250 Descending Atlanta Center
Fri 02:10:02 PM 35.1253 -81.8675 251° West 279 321 7,500 -1,900 Descending Atlanta Center
Fri 02:11:02 PM 35.1036 -81.9469 252° West 260 299 5,500 -1,550 Descending Atlanta Center
Fri 02:12:02 PM 35.0819 -82.0208 250° West 254 292 4,400 -1,200 Descending Atlanta Center
Fri 02:13:02 PM 35.0583 -82.1028 251° West 254 292 3,100 -1,300 Descending Atlanta Center

Login

Don't have an account? Register now (free) for customized features, flight alerts, and more!